Airfield :
LOGIN :

Register | Disclaimer

   EN    FR    IT 

 










Legend :    VFR   Marginal VFR   IFR   Intensive IFR   Very Intensive IFR
Visi :
Ceiling :
>= 8 km
>= 3000ft
5 to 8 km
1000 to 3000 ft
1500m to 5 km
500 to 1000 ft
800 to 1500m
200 to 500 ft
< 800m
< 200 ft
Symbols :   Thunderstorms  Fog  Heavy snow  Heavy precipitations  Wind > 20 kt
SIGMETs :     Misc.  Thunderstorms  Icing  Turbulence  Mountain Waves  Volcanic Ashes






- Airport Elevation : 464 ft
- IATA code : EVX


LFOE - Evreux

CURRENT METAR :
  • 061800Z AUTO 06005KT CAVOK 04/M01 Q1038 NOSIG

EXPIRED METARs :
  • 061730Z AUTO 04006KT CAVOK 03/M02 Q1038 NOSIG
  • 061700Z AUTO 06005KT CAVOK 05/M01 Q1037 NOSIG
  • 061630Z AUTO 04006KT CAVOK 06/M01 Q1037 NOSIG
  • 061600Z AUTO 04006KT CAVOK 08/M00 Q1037 NOSIG
  • 061530Z AUTO 05009KT CAVOK 08/M01 Q1038 NOSIG

TAF TAF LFOE
Valid from the 06 at 15:00 until the 07 at 15:00 UTC


061400Z 0615/0715 05010KT CAVOK
BECMG 0622/0624 BKN005
TEMPO 0700/0707 4000 BR BKN003
BECMG 0707/0709 BKN010
BECMG 0709/0711 CAVOK



MET'MAP, your aeronautical weather chart ! - Copyright ORBIFLY December 2007 - Disclaimer

ORBIFLY MET'MAP TEAM :

Programming & Development : Alexandra Zaïnal
Original concept : Baudouin d'Aumeries
Technical & hardware support : Manuel Goepfert
Assistance : Marc-Olivier Méhu




SOURCES & CREDITS :

   NOAA